createdAt,value
2019-03-31T00:01:57.186Z,183.45
2019-03-31T00:04:29.802Z,233.07
2019-03-31T00:07:02.269Z,228.47
2019-03-31T00:09:34.561Z,254.07
2019-03-31T00:12:06.777Z,457.23
2019-03-31T00:14:39.074Z,272.50
2019-03-31T00:17:11.335Z,213.18
2019-03-31T00:19:43.488Z,271.30
2019-03-31T00:22:15.618Z,113.80
2019-03-31T00:24:48.405Z,828.03
2019-03-31T00:27:20.577Z,211.45
2019-03-31T00:29:52.860Z,631.95
2019-03-31T00:32:25.384Z,186.50
2019-03-31T00:34:57.810Z,348.48
2019-03-31T00:37:30.085Z,237.12
2019-03-31T00:40:03.327Z,219.82
2019-03-31T00:42:35.479Z,349.63
2019-03-31T00:45:09.045Z,336.55
2019-03-31T00:47:41.312Z,262.70
2019-03-31T00:50:13.599Z,328.10
2019-03-31T00:52:45.939Z,508.77
2019-03-31T00:55:18.675Z,296.90
2019-03-31T00:57:51.045Z,292.32
2019-03-31T01:00:24.694Z,820.80
2019-03-31T01:03:00.778Z,152.53
2019-03-31T01:05:33.133Z,219.32
2019-03-31T01:08:05.759Z,144.45
2019-03-31T01:10:38.241Z,220.57
2019-03-31T01:13:10.667Z,1186.03
2019-03-31T01:15:44.556Z,635.92
2019-03-31T01:18:16.806Z,521.48
2019-03-31T01:20:49.081Z,137.15
2019-03-31T01:23:21.486Z,113.92
2019-03-31T01:25:53.980Z,216.53
2019-03-31T01:28:26.263Z,408.30
2019-03-31T01:30:58.815Z,614.25
2019-03-31T01:33:31.041Z,418.90
2019-03-31T01:36:03.344Z,698.67
2019-03-31T01:38:35.591Z,888.25
2019-03-31T01:41:07.670Z,637.77
2019-03-31T01:43:40.025Z,666.08
2019-03-31T01:46:14.098Z,418.55
2019-03-31T01:48:47.564Z,461.55
2019-03-31T01:51:19.737Z,581.65
2019-03-31T01:53:52.065Z,480.85
2019-03-31T01:56:24.473Z,336.57
2019-03-31T01:58:56.721Z,1554.90
2019-03-31T02:01:29.012Z,288.75
2019-03-31T02:04:03.019Z,482.47
2019-03-31T02:06:35.704Z,797.70
2019-03-31T02:09:08.156Z,578.00
2019-03-31T02:11:40.432Z,152.20
2019-03-31T02:14:12.706Z,393.30
2019-03-31T02:16:45.078Z,314.25
2019-03-31T02:19:17.209Z,125.18
2019-03-31T02:21:49.399Z,650.95
2019-03-31T02:24:21.553Z,524.60
2019-03-31T02:26:54.194Z,155.50
2019-03-31T02:29:26.455Z,670.70
2019-03-31T02:31:58.764Z,649.52
2019-03-31T02:34:31.036Z,828.08
2019-03-31T02:37:03.524Z,100.60
2019-03-31T02:39:35.754Z,463.47
2019-03-31T02:42:08.114Z,866.47
2019-03-31T02:44:40.389Z,101.85
2019-03-31T02:47:12.760Z,797.08
2019-03-31T02:49:45.238Z,386.83
2019-03-31T02:52:17.541Z,121.27
2019-03-31T02:54:49.895Z,406.40
2019-03-31T02:57:23.899Z,212.00
2019-03-31T02:59:56.221Z,234.17
2019-03-31T03:02:41.349Z,471.18
2019-03-31T03:05:19.000Z,1011.55
2019-03-31T03:07:40.777Z,379.95
2019-03-31T03:10:13.051Z,642.83
2019-03-31T03:12:45.348Z,252.50
2019-03-31T03:15:20.427Z,784.05
2019-03-31T03:17:52.596Z,624.23
2019-03-31T03:20:25.952Z,623.95
2019-03-31T03:22:58.199Z,378.05
2019-03-31T03:25:30.531Z,350.05
2019-03-31T03:28:03.195Z,422.57
2019-03-31T03:30:35.513Z,439.37
2019-03-31T03:33:17.560Z,429.90
2019-03-31T03:35:41.429Z,1340.15
2019-03-31T03:38:13.623Z,75.00
2019-03-31T03:40:45.851Z,702.23
2019-03-31T03:43:18.130Z,233.97
2019-03-31T03:45:50.374Z,1215.08
2019-03-31T03:48:22.698Z,847.63
2019-03-31T03:50:54.857Z,362.35
2019-03-31T03:53:27.182Z,197.40
2019-03-31T03:55:59.561Z,257.18
2019-03-31T03:58:31.930Z,755.73
2019-03-31T04:01:05.355Z,342.75
2019-03-31T04:03:37.697Z,497.85
2019-03-31T04:06:10.955Z,339.15
2019-03-31T04:08:43.264Z,986.60
2019-03-31T04:11:21.169Z,330.43
2019-03-31T04:13:51.753Z,380.50
2019-03-31T04:16:23.881Z,755.20
2019-03-31T04:18:56.188Z,607.52
2019-03-31T04:21:28.820Z,1162.45
2019-03-31T04:24:01.212Z,719.10
2019-03-31T04:26:33.461Z,252.57
2019-03-31T04:29:05.869Z,511.50
2019-03-31T04:31:38.039Z,209.35
2019-03-31T04:34:10.366Z,829.40
2019-03-31T04:36:42.754Z,220.30
2019-03-31T04:39:15.013Z,376.43
2019-03-31T04:41:48.563Z,170.12
2019-03-31T04:44:20.747Z,375.43
2019-03-31T04:46:52.890Z,597.65
2019-03-31T04:49:25.100Z,1054.60
2019-03-31T04:51:57.344Z,85.55
2019-03-31T04:54:29.646Z,224.45
2019-03-31T04:57:04.424Z,334.00
2019-03-31T04:59:35.754Z,140.83
2019-03-31T05:02:09.212Z,165.92
2019-03-31T05:04:41.433Z,466.85
2019-03-31T05:07:15.469Z,494.80
2019-03-31T05:09:47.758Z,360.52
2019-03-31T05:12:20.066Z,244.55
2019-03-31T05:14:52.445Z,223.17
2019-03-31T05:17:24.727Z,179.23
2019-03-31T05:19:57.086Z,588.45
2019-03-31T05:22:29.559Z,603.55
2019-03-31T05:25:02.054Z,507.25
2019-03-31T05:27:34.360Z,780.77
2019-03-31T05:30:07.991Z,264.75
2019-03-31T05:32:40.157Z,399.25
2019-03-31T05:35:12.455Z,126.38
2019-03-31T05:37:51.127Z,332.13
2019-03-31T05:40:18.515Z,261.50
2019-03-31T05:42:51.911Z,667.42
2019-03-31T05:45:24.272Z,986.63
2019-03-31T05:47:56.510Z,986.12
2019-03-31T05:50:28.776Z,501.57
2019-03-31T05:53:00.950Z,148.82
2019-03-31T05:55:33.127Z,554.65
2019-03-31T05:58:05.599Z,623.15
2019-03-31T06:00:39.288Z,314.75
2019-03-31T06:03:11.439Z,661.92
2019-03-31T06:05:43.608Z,1222.38
2019-03-31T06:08:17.902Z,358.40
2019-03-31T06:10:50.234Z,505.18
2019-03-31T06:13:22.495Z,292.68
2019-03-31T06:15:55.371Z,497.67
2019-03-31T06:18:27.622Z,613.65
2019-03-31T06:21:00.918Z,399.75
2019-03-31T06:23:34.187Z,373.85
2019-03-31T06:26:06.445Z,494.82
2019-03-31T06:28:38.662Z,800.15
2019-03-31T06:31:11.078Z,237.63
2019-03-31T06:33:43.346Z,227.50
2019-03-31T06:36:15.623Z,1388.10
2019-03-31T06:38:47.994Z,765.95
2019-03-31T06:41:20.179Z,168.72
2019-03-31T06:43:52.427Z,150.30
2019-03-31T06:46:24.683Z,404.18
2019-03-31T06:48:56.908Z,415.47
2019-03-31T06:51:29.098Z,695.83
2019-03-31T06:54:01.473Z,488.27
2019-03-31T06:56:33.643Z,815.65
2019-03-31T06:59:05.917Z,358.45
2019-03-31T07:01:38.372Z,394.15
2019-03-31T07:04:10.758Z,361.62
2019-03-31T07:06:42.964Z,136.03
2019-03-31T07:09:17.740Z,457.75
2019-03-31T07:11:50.040Z,279.02
2019-03-31T07:14:22.274Z,317.87
2019-03-31T07:16:54.564Z,408.02
2019-03-31T07:19:26.952Z,566.10
2019-03-31T07:21:59.230Z,260.32
2019-03-31T07:24:31.567Z,469.43
2019-03-31T07:27:03.933Z,906.58
2019-03-31T07:29:36.196Z,182.62
2019-03-31T07:32:08.724Z,365.18
2019-03-31T07:34:41.085Z,365.02
2019-03-31T07:37:13.580Z,411.25
2019-03-31T07:39:46.217Z,281.20
2019-03-31T07:42:18.997Z,446.33
2019-03-31T07:44:51.262Z,184.25
2019-03-31T07:47:23.558Z,222.88
2019-03-31T07:49:55.794Z,221.83
2019-03-31T07:52:28.098Z,777.52
2019-03-31T07:55:00.458Z,997.60
2019-03-31T07:57:32.622Z,867.70
2019-03-31T08:00:05.337Z,659.37
2019-03-31T08:02:37.921Z,1154.60
2019-03-31T08:05:10.554Z,325.93
2019-03-31T08:07:42.837Z,942.17
2019-03-31T08:10:19.555Z,433.57
2019-03-31T08:12:51.931Z,450.50
2019-03-31T08:15:24.358Z,238.97
2019-03-31T08:17:56.941Z,560.60
2019-03-31T08:20:29.323Z,567.97
2019-03-31T08:23:01.586Z,99.65
2019-03-31T08:25:35.339Z,1307.33
2019-03-31T08:28:07.715Z,713.48
2019-03-31T08:30:39.972Z,400.25
2019-03-31T08:33:12.289Z,528.85
2019-03-31T08:35:47.647Z,461.12
2019-03-31T08:38:18.018Z,364.40
2019-03-31T08:40:50.386Z,198.45
2019-03-31T08:43:22.681Z,291.42
2019-03-31T08:45:54.921Z,496.18
2019-03-31T08:48:27.302Z,785.65
2019-03-31T08:50:59.601Z,443.35
2019-03-31T08:53:31.958Z,680.65
2019-03-31T08:56:04.160Z,292.13
2019-03-31T08:58:36.652Z,202.47
2019-03-31T09:01:10.230Z,1134.60
2019-03-31T09:03:42.778Z,530.37
2019-03-31T09:06:15.027Z,597.85
2019-03-31T09:08:47.613Z,568.03
2019-03-31T09:11:21.650Z,257.90
2019-03-31T09:13:53.940Z,555.25
2019-03-31T09:16:27.342Z,268.20
2019-03-31T09:18:59.699Z,882.90
2019-03-31T09:21:31.970Z,1236.65
2019-03-31T09:24:04.153Z,516.02
2019-03-31T09:26:36.493Z,357.73
2019-03-31T09:29:08.838Z,1075.88
2019-03-31T09:31:42.016Z,821.05
2019-03-31T09:34:14.546Z,1999.90
2019-03-31T09:36:47.320Z,1365.68
2019-03-31T09:39:19.702Z,857.20
2019-03-31T09:41:52.069Z,518.80
2019-03-31T09:44:24.520Z,952.08
2019-03-31T09:46:56.907Z,1808.08
2019-03-31T09:49:29.294Z,695.50
2019-03-31T09:52:01.530Z,998.67
2019-03-31T09:54:33.819Z,445.30
2019-03-31T09:57:06.373Z,1368.38
2019-03-31T09:59:39.693Z,958.02
2019-03-31T10:02:12.111Z,937.03
2019-03-31T10:04:44.787Z,746.85
2019-03-31T10:07:16.949Z,416.32
2019-03-31T10:09:49.118Z,1051.23
2019-03-31T10:12:22.357Z,297.57
2019-03-31T10:14:54.530Z,1626.25
2019-03-31T10:17:26.770Z,601.52
2019-03-31T10:19:58.963Z,763.33
2019-03-31T10:22:31.224Z,727.52
2019-03-31T10:25:03.493Z,287.60
2019-03-31T10:27:35.721Z,471.37
2019-03-31T10:30:09.796Z,424.92
2019-03-31T10:32:42.016Z,253.73
2019-03-31T10:35:14.658Z,402.77
2019-03-31T10:37:46.907Z,809.75
2019-03-31T10:40:19.191Z,406.57
2019-03-31T10:42:51.554Z,290.90
2019-03-31T10:45:24.051Z,961.57
2019-03-31T10:47:56.288Z,739.85
2019-03-31T10:50:28.559Z,278.55
2019-03-31T10:53:00.802Z,717.13
2019-03-31T10:55:34.037Z,719.58
2019-03-31T10:58:06.186Z,443.67
2019-03-31T11:00:40.002Z,838.83
2019-03-31T11:03:12.220Z,429.35
2019-03-31T11:05:44.541Z,386.00
2019-03-31T11:08:16.781Z,1228.88
2019-03-31T11:10:49.378Z,715.20
2019-03-31T11:13:24.509Z,153.35
2019-03-31T11:15:57.610Z,865.60
2019-03-31T11:18:29.932Z,837.25
2019-03-31T11:21:03.301Z,386.45
2019-03-31T11:23:35.615Z,800.47
2019-03-31T11:26:08.001Z,829.78
2019-03-31T11:28:40.373Z,1181.83
2019-03-31T11:31:12.660Z,1050.53
2019-03-31T11:33:46.646Z,1393.22
2019-03-31T11:36:19.078Z,1428.68
2019-03-31T11:38:52.745Z,1128.92
2019-03-31T11:41:25.057Z,1265.88
2019-03-31T11:43:57.254Z,911.12
2019-03-31T11:46:29.684Z,1999.90
2019-03-31T11:49:01.951Z,1533.25
2019-03-31T11:51:34.122Z,219.07
2019-03-31T11:54:06.317Z,951.55
2019-03-31T11:56:38.545Z,609.77
2019-03-31T11:59:11.925Z,366.82
2019-03-31T12:01:44.405Z,731.02
2019-03-31T12:04:16.549Z,840.10
2019-03-31T12:06:49.003Z,251.55
2019-03-31T12:09:21.284Z,169.60
2019-03-31T12:11:53.766Z,216.68
2019-03-31T12:14:28.764Z,194.70
2019-03-31T12:17:01.184Z,145.40
2019-03-31T12:19:33.411Z,904.50
2019-03-31T12:22:05.611Z,278.37
2019-03-31T12:24:38.055Z,112.25
2019-03-31T12:27:10.322Z,220.73
2019-03-31T12:29:42.516Z,223.97
2019-03-31T12:32:14.904Z,440.80
2019-03-31T12:34:47.342Z,168.02
2019-03-31T12:37:19.698Z,255.27
2019-03-31T12:39:51.927Z,420.57
2019-03-31T12:42:24.696Z,188.33
2019-03-31T12:44:56.967Z,452.90
2019-03-31T12:47:29.746Z,230.00
2019-03-31T12:50:02.000Z,1999.90
2019-03-31T12:52:46.128Z,1999.90
2019-03-31T12:55:08.502Z,1999.90
2019-03-31T12:57:41.943Z,1999.90
2019-03-31T13:00:14.247Z,81.05
2019-03-31T13:02:46.570Z,26.63
2019-03-31T13:05:18.817Z,184.45
2019-03-31T13:07:56.488Z,27.58
2019-03-31T13:10:25.879Z,27.13
2019-03-31T13:12:58.165Z,23.05
2019-03-31T13:15:31.169Z,24.10
2019-03-31T13:18:03.471Z,22.73
2019-03-31T13:20:35.983Z,21.77
2019-03-31T13:23:08.166Z,23.80
2019-03-31T13:25:40.344Z,18.52
2019-03-31T13:28:12.893Z,24.07
2019-03-31T13:30:45.181Z,22.75
2019-03-31T13:33:17.520Z,25.32
2019-03-31T13:35:53.033Z,24.50
2019-03-31T13:38:23.614Z,28.38
2019-03-31T13:40:55.938Z,25.50
2019-03-31T13:43:28.223Z,24.12
2019-03-31T13:46:00.482Z,24.43
2019-03-31T13:48:32.777Z,24.23
2019-03-31T13:51:05.055Z,23.15
2019-03-31T13:53:38.219Z,30.92
2019-03-31T13:56:11.134Z,30.52
2019-03-31T13:58:43.819Z,27.48
2019-03-31T14:01:16.917Z,26.60
2019-03-31T14:03:49.213Z,24.17
2019-03-31T14:06:22.391Z,26.33
2019-03-31T14:08:54.867Z,30.85
2019-03-31T14:11:27.241Z,31.30
2019-03-31T14:13:59.579Z,28.42
2019-03-31T14:16:32.168Z,31.17
2019-03-31T14:19:04.471Z,28.12
2019-03-31T14:21:39.934Z,28.60
2019-03-31T14:24:10.372Z,26.33
2019-03-31T14:26:42.695Z,26.42
2019-03-31T14:29:15.229Z,24.92
2019-03-31T14:31:47.399Z,29.25
2019-03-31T14:34:19.605Z,26.85
2019-03-31T14:36:51.815Z,22.53
2019-03-31T14:39:24.449Z,24.72
2019-03-31T14:41:56.825Z,28.80
2019-03-31T14:44:29.416Z,27.07
2019-03-31T14:47:02.203Z,24.43
2019-03-31T14:49:34.711Z,25.52
2019-03-31T14:52:07.027Z,26.60
2019-03-31T14:54:39.700Z,30.43
2019-03-31T14:57:11.969Z,28.37
2019-03-31T14:59:44.347Z,29.30
2019-03-31T15:02:16.606Z,28.52
2019-03-31T15:04:48.806Z,31.42
2019-03-31T15:07:20.925Z,27.77
2019-03-31T15:09:55.482Z,27.73
2019-03-31T15:12:27.863Z,28.67
2019-03-31T15:15:00.265Z,27.10
2019-03-31T15:17:32.875Z,25.62
2019-03-31T15:20:06.375Z,26.95
2019-03-31T15:22:38.759Z,22.48
2019-03-31T15:25:14.520Z,20.50
2019-03-31T15:27:46.989Z,18.67
2019-03-31T15:30:19.263Z,19.52
2019-03-31T15:32:51.452Z,20.05
2019-03-31T15:35:23.719Z,19.40
2019-03-31T15:37:55.863Z,22.45
2019-03-31T15:40:32.114Z,19.25
2019-03-31T15:43:04.373Z,23.87
2019-03-31T15:45:36.680Z,17.65
2019-03-31T15:48:09.155Z,20.55
2019-03-31T15:50:41.527Z,23.22
2019-03-31T15:53:13.688Z,19.82
2019-03-31T15:55:45.932Z,19.67
2019-03-31T15:58:18.274Z,19.12
2019-03-31T16:00:51.423Z,22.27
2019-03-31T16:03:23.694Z,20.62
2019-03-31T16:05:55.880Z,19.53
2019-03-31T16:08:28.155Z,45.33
2019-03-31T16:11:00.569Z,34.85
2019-03-31T16:13:32.835Z,39.15
2019-03-31T16:16:05.337Z,25.75
2019-03-31T16:18:37.897Z,25.57
2019-03-31T16:21:10.182Z,21.15
2019-03-31T16:23:42.517Z,18.57
2019-03-31T16:26:14.780Z,20.37
2019-03-31T16:28:47.056Z,21.75
2019-03-31T16:31:19.327Z,23.47
2019-03-31T16:33:51.700Z,20.80
2019-03-31T16:36:23.965Z,19.57
2019-03-31T16:38:56.220Z,19.57
2019-03-31T16:41:28.637Z,19.00
2019-03-31T16:44:01.226Z,20.45
2019-03-31T16:46:33.615Z,20.57
2019-03-31T16:49:05.774Z,17.60
2019-03-31T16:51:38.078Z,21.82
2019-03-31T16:54:10.231Z,19.55
2019-03-31T16:56:42.846Z,19.27
2019-03-31T16:59:15.094Z,18.12
2019-03-31T17:01:47.412Z,18.95
2019-03-31T17:04:20.318Z,23.52
2019-03-31T17:06:52.989Z,23.05
2019-03-31T17:09:25.263Z,24.32
2019-03-31T17:11:57.954Z,19.65
2019-03-31T17:14:30.508Z,19.40
2019-03-31T17:17:02.983Z,18.00
2019-03-31T17:19:35.508Z,20.08
2019-03-31T17:22:07.821Z,17.35
2019-03-31T17:24:39.980Z,18.52
2019-03-31T17:27:14.103Z,19.62
2019-03-31T17:29:45.872Z,17.37
2019-03-31T17:32:18.235Z,18.25
2019-03-31T17:34:50.493Z,18.90
2019-03-31T17:37:22.934Z,18.27
2019-03-31T17:40:05.466Z,17.65
2019-03-31T17:42:28.851Z,18.65
2019-03-31T17:45:00.867Z,18.77
2019-03-31T17:47:34.040Z,19.02
2019-03-31T17:50:06.901Z,18.05
2019-03-31T17:52:39.169Z,19.07
2019-03-31T17:55:11.529Z,18.50
2019-03-31T17:57:44.810Z,18.57
2019-03-31T18:00:17.361Z,19.23
2019-03-31T18:02:49.541Z,22.87
2019-03-31T18:05:21.669Z,22.40
2019-03-31T18:07:53.773Z,18.00
2019-03-31T18:10:26.034Z,16.95
2019-03-31T18:12:59.145Z,21.15
2019-03-31T18:15:31.505Z,18.98
2019-03-31T18:18:03.686Z,19.57
2019-03-31T18:20:36.670Z,21.20
2019-03-31T18:23:08.942Z,19.27
2019-03-31T18:25:41.514Z,19.30
2019-03-31T18:28:13.799Z,22.17
2019-03-31T18:30:46.135Z,31.10
2019-03-31T18:33:18.299Z,33.05
2019-03-31T18:35:50.786Z,36.23
2019-03-31T18:38:24.041Z,35.38
2019-03-31T18:40:56.277Z,30.35
2019-03-31T18:43:28.942Z,23.80
2019-03-31T18:46:01.228Z,23.90
2019-03-31T18:48:33.613Z,21.15
2019-03-31T18:51:05.857Z,23.12
2019-03-31T18:53:39.550Z,22.85
2019-03-31T18:56:13.097Z,20.97
2019-03-31T18:58:46.646Z,22.57
2019-03-31T19:01:20.353Z,30.60
2019-03-31T19:03:54.058Z,25.37
2019-03-31T19:06:27.645Z,23.90
2019-03-31T19:09:01.160Z,24.67
2019-03-31T19:11:36.397Z,23.97
2019-03-31T19:14:10.596Z,27.48
2019-03-31T19:16:44.418Z,26.25
2019-03-31T19:19:18.020Z,27.93
2019-03-31T19:21:51.715Z,36.23
2019-03-31T19:24:25.322Z,32.33
2019-03-31T19:26:58.952Z,27.70
2019-03-31T19:29:32.420Z,24.53
2019-03-31T19:32:05.952Z,26.37
2019-03-31T19:34:39.376Z,26.30
2019-03-31T19:37:12.788Z,30.63
2019-03-31T19:39:46.308Z,32.87
2019-03-31T19:42:21.341Z,31.20
2019-03-31T19:44:55.130Z,33.00
2019-03-31T19:47:28.649Z,32.40
2019-03-31T19:50:02.760Z,31.40
2019-03-31T19:52:36.464Z,30.68
2019-03-31T19:55:10.095Z,29.77
2019-03-31T19:57:43.673Z,33.50
2019-03-31T20:00:17.419Z,35.88
2019-03-31T20:02:50.965Z,74.97
2019-03-31T20:05:24.587Z,60.03
2019-03-31T20:07:58.104Z,57.48
2019-03-31T20:10:31.674Z,34.08
2019-03-31T20:13:05.320Z,41.30
2019-03-31T20:15:40.074Z,43.60
2019-03-31T20:18:14.636Z,30.23
2019-03-31T20:20:48.188Z,29.67
2019-03-31T20:23:22.031Z,52.17
2019-03-31T20:25:55.489Z,56.40
2019-03-31T20:28:28.886Z,31.20
2019-03-31T20:31:02.441Z,30.72
2019-03-31T20:33:36.186Z,42.78
2019-03-31T20:36:10.234Z,33.95
2019-03-31T20:38:44.757Z,29.77
2019-03-31T20:41:18.171Z,31.48
2019-03-31T20:43:51.713Z,34.87
2019-03-31T20:46:24.845Z,30.25
2019-03-31T20:48:57.318Z,29.63
2019-03-31T20:51:29.789Z,28.00
2019-03-31T20:54:02.052Z,27.45
2019-03-31T20:56:35.519Z,27.35
2019-03-31T20:59:07.904Z,28.30
2019-03-31T21:01:40.264Z,29.35
2019-03-31T21:04:12.528Z,34.83
2019-03-31T21:06:44.829Z,36.33
2019-03-31T21:09:17.308Z,59.33
2019-03-31T21:11:49.652Z,33.07
2019-03-31T21:14:21.819Z,34.95
2019-03-31T21:16:55.197Z,31.02
2019-03-31T21:19:27.410Z,30.27
2019-03-31T21:21:59.754Z,26.10
2019-03-31T21:24:32.253Z,29.10
2019-03-31T21:27:04.550Z,27.48
2019-03-31T21:29:36.705Z,29.90
2019-03-31T21:32:08.984Z,32.38
2019-03-31T21:34:41.250Z,33.55
2019-03-31T21:37:13.708Z,32.15
2019-03-31T21:39:45.941Z,27.13
2019-03-31T21:42:18.229Z,31.30
2019-03-31T21:44:50.479Z,32.93
2019-03-31T21:47:22.982Z,28.35
2019-03-31T21:49:55.345Z,32.28
2019-03-31T21:52:27.702Z,30.70
2019-03-31T21:55:01.165Z,32.67
2019-03-31T21:57:33.536Z,36.85
2019-03-31T22:00:07.784Z,36.93
2019-03-31T22:02:41.320Z,33.08
2019-03-31T22:05:13.769Z,35.17
2019-03-31T22:07:46.130Z,34.33
2019-03-31T22:10:18.514Z,35.88
2019-03-31T22:12:50.710Z,38.80
2019-03-31T22:15:23.045Z,36.60
2019-03-31T22:17:56.678Z,38.25
2019-03-31T22:20:29.224Z,36.30
2019-03-31T22:23:01.621Z,35.03
2019-03-31T22:25:33.951Z,38.90
2019-03-31T22:28:06.364Z,35.47
2019-03-31T22:30:38.806Z,34.10
2019-03-31T22:33:10.879Z,36.97
2019-03-31T22:35:44.815Z,34.05
2019-03-31T22:38:17.170Z,35.17
2019-03-31T22:40:49.449Z,38.90
2019-03-31T22:43:21.696Z,36.55
2019-03-31T22:45:53.943Z,37.48
2019-03-31T22:48:26.358Z,38.85
2019-03-31T22:50:58.502Z,38.55
2019-03-31T22:53:30.897Z,34.85
2019-03-31T22:56:03.034Z,38.03
2019-03-31T22:58:35.118Z,35.23
2019-03-31T23:01:07.293Z,36.35
2019-03-31T23:03:39.436Z,37.03
2019-03-31T23:06:11.691Z,35.92
2019-03-31T23:08:43.846Z,38.80
2019-03-31T23:11:16.054Z,68.90
2019-03-31T23:26:44.366Z,42.65
2019-03-31T23:29:16.859Z,43.63
2019-03-31T23:31:49.064Z,61.05
2019-03-31T23:34:21.213Z,57.03
2019-03-31T23:36:53.412Z,45.83
2019-03-31T23:39:25.718Z,58.35
2019-03-31T23:41:58.077Z,51.40
2019-03-31T23:44:30.417Z,53.42
2019-03-31T23:47:02.504Z,49.58
2019-03-31T23:49:34.995Z,46.43
2019-03-31T23:52:07.279Z,52.08
2019-03-31T23:54:39.417Z,46.83
2019-03-31T23:57:11.812Z,44.48
2019-03-31T23:59:44.599Z,42.67
